Pays
Station

 

Conditions  météo  pour  Pittsburgh, Pittsburgh International Airport  -  Etats-Unis    Etats-Unis

  
15 °C
    
 
 

METAR pour Pittsburgh, Pittsburgh International Airport :

KPIT 231151Z 33010KT 10SM OVC009 15/13 A3008 RMK AO2 SLP192 70019 T01500128 10178 20150 53021 $

 

Voici le bulletin pour Pittsburgh, Pittsburgh International Airport - Etats-Unis.
 
Le bulletin a été fait il y a 43 minutes, à 11:51 UTC .
Le vent soufflait à la vitesse de 5.1 mètres par seconde de Nord/Nord-ouest (330°).
 
La température était de 15 °C, avec un point de rosée à 13 °C.
La pression atmosphérique était de 1019 hPa.
L'humidité relative était de 87.8%.
 
Le ciel était nuageux à partir d'une hauteur de 274 mètres
 
La visibilité globale était de 16.1 kilomètres.
 

 
 
 

Pays :   A   B   C   D   E   F   G   H   I   J   K   L   M   N   O   P   Q   R   S   T   U   V   W   Y   Z

 

Partenaires :  Info Météo avec Met'info
Météo Marine avec MeteoMarine.net
Infos Site  |  Infos Légales  |  Crédits  |  Confidentialité
Contactez-nous  |  Ajouter aux favoris
© 2013-2018 METAR - Tous droits réservés